Terminal Aerodrome Forecast
Issued by NWS Pueblo, CO

Home | Current Version | Previous Version | Text Only | Print | Product List | Glossary On
Versions: 1 2 3 4 5 6 7 8 9 10 11 12 13 14 15 16 17
000
FTUS45 KPUB 171731
TAFCOS
TAF
KCOS 171731Z 1718/1818 17007KT P6SM SCT070 SCT200
     FM172100 14008KT P6SM VCTS SCT060CB BKN140
     FM180200 35006KT P6SM SCT060 BKN140
     FM180500 35006KT P6SM SCT140=

USA.gov is the U.S. government's official web portal to all federal, state and local government web resources and services.